Flugplatz Achmer

EDXA · 下萨克森, 德国

罗盘
风向 的 风向 的 风向 到 风向 040° Flugplatz Achmer 7/25
风: 7 kt, 3 beaufort

6 kt

4 kt
改变
0 1.000 2.000 3.000 4.000 5.000
BKN 900 ft
OVC 1.700 ft
METAR EDDG 020150Z AUTO 04007KT 360V090 9999 BKN009 OVC017 02/01 Q1025 TEMPO BKN015

METAR Flugplatz Achmer - EDXA

Flugplatz Achmer是,德国中的小机场。 该机场有一条跑道: 7/25. 该领域的国际民航组织标志是EDXA.

这份报告是针对2022年12月2日 02:50, 当地时间在Münster Osnabrück Airport进行的。

机场观察

风向为040°,速度为7 kt。 风向在360°和090°之间变化。

可见度为10 km 或者更多。

有碎云在900 ft的高度 和 乌云密布在1.700 ft的高度。 破损或更高的上限为900 ft。

温度为2 °C,阵风为-3 °C。 露点为1 °C,相对湿度为93%。 海平面上的气压为1025 hPa (QNH)。

发展趋势

  • 暂时的

    可变方向的风很小或没有。 碎云在1.500 ft的高度.

白天

今天,太阳从08:17升起,在16:18降落。 这适用于Flugplatz Achmer,世界夏令时可能有所不同。 当地时间与世界标准时间之间的时差为+1 小时。 当前,没有夏令时有效。

公司介绍

我们没有关于这个机场的公司信息。

体会

到Vliegles.nl去找飞行课程,跳伞和其他飞行体验。 浏览页面,了解Flugplatz Achmer附近所有可用的活动。 你也可以使用搜索功能来寻找你所在地附近的特定飞行课程、跳伞或其他飞行体验。

跑道

Id 标题 侧风 逆风 侧风 %
7/25 070°-250° 4 kt 6 kt 50 %

逆风成分最大的方向会被突出显示,并用于横风计算。 这并不一定意味着这个方向在使用。

乌云

900 ft BKN 碎云
1.700 ft OVC 乌云密布
1.500 ft BKN 暂时的 碎云

温度 & 天气

温度 2 °C
露点 1 °C
相对湿度 93%
风寒 -3 °C
Kp-index 3 (0-9)

白天

日出
08:16 (4:55)
中午
12:18
日落
16:20

小工具

你想在你的网站上有一个关于Flugplatz Achmer的当前航空天气(METAR)的小部件吗?

显示HTML代码

我们和第三方通过cookies跟踪您在我们网站上的互联网行为。如果你继续,我们认为你同意我们的饼干政策